Time;durP1;ratioP1;P1;durP2;ratioP2;P2;SDS_P1;SDS_P2;PMS_P1;PMS_P2;Temp;Humidity;BMP_temperature;BMP_pressure;BME280_temperature;BME280_humidity;BME280_pressure;Samples;Min_cycle;Max_cycle;Signal;HPM_P1;HPM_P2
2022/06/15 00:00:44;;;;;;;9.20;8.13;;;;;;;19.56;58.68;99628.16;5069933;28;20437;-77
2022/06/15 00:03:12;;;;;;;10.43;6.95;;;;;;;19.42;59.23;99634.53;5071024;28;20056;-77
2022/06/15 00:05:37;;;;;;;8.23;6.00;;;;;;;19.38;58.90;99636.53;5072289;28;20024;-77
2022/06/15 00:08:04;;;;;;;10.20;6.35;;;;;;;19.29;59.75;99628.34;5089960;28;20042;-77
2022/06/15 00:10:29;;;;;;;13.40;6.60;;;;;;;19.24;59.38;99630.72;5091187;28;20027;-77
2022/06/15 00:12:55;;;;;;;7.50;6.32;;;;;;;19.26;59.24;99631.97;5089390;28;20012;-77
2022/06/15 00:15:21;;;;;;;8.00;6.32;;;;;;;19.24;59.54;99627.88;5090892;28;20020;-77
2022/06/15 00:17:47;;;;;;;10.50;7.43;;;;;;;19.13;59.65;99622.91;5094380;28;20057;-77
2022/06/15 00:20:12;;;;;;;9.70;7.00;;;;;;;19.22;59.05;99631.09;5077856;28;20292;-77
2022/06/15 00:22:40;;;;;;;12.57;8.32;;;;;;;19.10;59.81;99622.88;5073275;28;20090;-78
2022/06/15 00:25:07;;;;;;;15.23;7.05;;;;;;;19.03;59.97;99617.97;5074070;28;20024;-77
2022/06/15 00:27:32;;;;;;;8.80;5.68;;;;;;;18.87;59.99;99609.66;5073936;28;20591;-77
2022/06/15 00:29:58;;;;;;;10.50;6.50;;;;;;;18.94;59.66;99621.91;5074878;28;20115;-77
2022/06/15 00:32:23;;;;;;;8.90;8.00;;;;;;;18.83;58.96;99612.47;5074576;28;20029;-77
2022/06/15 00:34:49;;;;;;;14.27;10.00;;;;;;;18.85;59.30;99620.56;5080730;28;20141;-77
2022/06/15 00:37:15;;;;;;;15.63;10.30;;;;;;;18.92;59.17;99618.63;5074500;28;20380;-78
2022/06/15 00:39:40;;;;;;;12.80;8.52;;;;;;;18.93;58.83;99613.78;5074483;28;20024;-77
2022/06/15 00:42:06;;;;;;;13.20;7.18;;;;;;;18.97;58.48;99622.34;5074258;28;20400;-77
2022/06/15 00:44:35;;;;;;;7.45;6.22;;;;;;;18.84;58.76;99628.28;5074461;28;20025;-77
2022/06/15 00:47:03;;;;;;;8.18;5.68;;;;;;;18.87;58.67;99624.66;5074352;28;20499;-77
2022/06/15 00:49:34;;;;;;;9.55;6.05;;;;;;;18.83;58.60;99622.97;5081292;28;20470;-77
2022/06/15 00:52:08;;;;;;;8.15;6.70;;;;;;;18.90;58.61;99626.72;5094596;28;20012;-77
2022/06/15 00:54:34;;;;;;;21.58;11.05;;;;;;;18.92;58.28;99632.78;5094307;28;20020;-78
2022/06/15 00:57:02;;;;;;;34.00;23.05;;;;;;;18.94;57.96;99627.59;5093158;28;20512;-77
2022/06/15 00:59:39;;;;;;;42.67;29.85;;;;;;;18.85;57.38;99632.75;5094409;28;20028;-78
2022/06/15 01:02:05;;;;;;;56.75;33.85;;;;;;;18.87;57.65;99621.81;5076516;28;20024;-77
2022/06/15 01:04:43;;;;;;;45.40;30.52;;;;;;;18.91;57.26;99631.16;5073709;28;20035;-77
2022/06/15 01:07:29;;;;;;;34.95;21.88;;;;;;;18.88;57.23;99643.28;5072267;28;20406;-76
2022/06/15 01:10:25;;;;;;;25.77;16.40;;;;;;;18.86;56.91;99628.69;5072664;28;20031;-77
2022/06/15 01:12:53;;;;;;;16.23;12.80;;;;;;;18.80;57.07;99633.91;5036926;28;20032;-78
2022/06/15 01:15:36;;;;;;;34.25;13.90;;;;;;;18.72;57.64;99642.72;5073715;28;20051;-78
2022/06/15 01:18:08;;;;;;;16.35;10.50;;;;;;;18.64;57.54;99627.63;5073292;28;20020;-77
2022/06/15 01:20:39;;;;;;;11.50;7.47;;;;;;;18.78;56.76;99630.63;5074837;28;20028;-77
2022/06/15 01:23:42;;;;;;;7.90;5.85;;;;;;;18.73;56.50;99633.00;5072192;28;20047;-77
2022/06/15 01:26:08;;;;;;;11.75;4.72;;;;;;;18.58;57.23;99624.34;5073509;28;20043;-78
2022/06/15 01:28:47;;;;;;;5.07;3.85;;;;;;;18.42;57.39;99624.53;5073508;28;20427;-77
2022/06/15 01:31:22;;;;;;;8.00;3.47;;;;;;;18.45;57.34;99631.44;5072350;28;20032;-78
2022/06/15 01:34:08;;;;;;;4.32;3.70;;;;;;;18.33;57.27;99629.69;5073284;28;20028;-78
2022/06/15 01:36:52;;;;;;;6.18;3.67;;;;;;;18.34;57.87;99623.63;5072233;28;20048;-77
2022/06/15 01:39:34;;;;;;;5.70;3.67;;;;;;;18.24;57.82;99630.78;5073133;28;20036;-78
2022/06/15 01:42:21;;;;;;;7.95;3.28;;;;;;;18.11;58.51;99632.22;5072071;28;20032;-77
2022/06/15 01:44:53;;;;;;;4.63;4.13;;;;;;;18.03;59.01;99619.16;5073402;28;20027;-78
2022/06/15 01:47:23;;;;;;;5.20;3.50;;;;;;;18.10;58.94;99637.06;5071914;28;20032;-78
2022/06/15 01:50:02;;;;;;;4.93;3.70;;;;;;;18.09;59.02;99640.28;5071757;28;20025;-78
2022/06/15 01:52:33;;;;;;;6.30;4.07;;;;;;;17.96;59.62;99634.81;5079623;28;20012;-77
2022/06/15 01:55:08;;;;;;;7.05;3.65;;;;;;;17.95;59.97;99640.84;5091060;28;20028;-78
2022/06/15 01:57:38;;;;;;;4.38;3.60;;;;;;;17.80;60.58;99634.16;5093249;28;20028;-78
2022/06/15 02:00:15;;;;;;;7.32;4.03;;;;;;;17.80;60.90;99646.28;5093217;28;20036;-77
2022/06/15 02:02:44;;;;;;;8.20;4.25;;;;;;;17.76;60.89;99638.94;5093057;28;20490;-78
2022/06/15 02:05:16;;;;;;;9.05;4.30;;;;;;;17.83;60.16;99639.84;5093006;28;20535;-78
2022/06/15 02:07:56;;;;;;;4.28;3.60;;;;;;;17.87;59.74;99650.44;5080252;28;20050;-78
2022/06/15 02:10:31;;;;;;;4.70;3.75;;;;;;;17.90;59.79;99650.47;5091510;28;20733;-78
2022/06/15 02:13:06;;;;;;;11.10;4.18;;;;;;;17.99;59.46;99649.38;5093226;28;20028;-78
2022/06/15 02:15:33;;;;;;;9.95;4.05;;;;;;;17.96;58.95;99642.47;5091602;28;20020;-75
2022/06/15 02:18:04;;;;;;;8.57;3.88;;;;;;;18.02;59.08;99657.09;5072718;28;20029;-77
2022/06/15 02:20:33;;;;;;;5.70;4.10;;;;;;;18.08;58.60;99650.75;5071196;28;20028;-78
2022/06/15 02:23:03;;;;;;;4.90;3.40;;;;;;;18.12;58.79;99652.84;5090695;28;20027;-78
2022/06/15 02:25:33;;;;;;;10.67;4.37;;;;;;;18.21;58.93;99656.19;5074281;28;20387;-78
2022/06/15 02:28:01;;;;;;;7.35;3.95;;;;;;;18.26;58.88;99655.88;5073852;28;20151;-78
2022/06/15 02:30:28;;;;;;;7.20;3.78;;;;;;;18.00;59.58;99648.19;5092459;28;20035;-77
2022/06/15 02:32:54;;;;;;;9.15;4.55;;;;;;;17.95;60.15;99647.31;5091180;28;20028;-78
2022/06/15 02:35:21;;;;;;;5.15;3.75;;;;;;;17.96;60.79;99656.63;5091607;28;20089;-78
2022/06/15 02:37:49;;;;;;;10.13;4.82;;;;;;;17.90;60.74;99669.47;5071910;28;20066;-78
2022/06/15 02:40:18;;;;;;;10.57;3.83;;;;;;;17.85;60.30;99658.47;5082173;28;20114;-78
2022/06/15 02:42:47;;;;;;;4.30;3.63;;;;;;;17.91;60.56;99663.41;5089261;28;20052;-78
2022/06/15 02:45:26;;;;;;;5.47;3.90;;;;;;;17.78;61.33;99660.00;5074894;28;20471;-78
2022/06/15 02:47:52;;;;;;;5.40;3.95;;;;;;;17.47;62.29;99655.44;5072278;28;20024;-78
2022/06/15 02:50:21;;;;;;;9.10;4.63;;;;;;;17.51;62.53;99671.28;5071554;28;20025;-78
2022/06/15 02:53:06;;;;;;;9.15;4.05;;;;;;;17.46;62.86;99665.13;5070617;28;20008;-78
2022/06/15 02:55:33;;;;;;;8.00;3.95;;;;;;;17.47;62.66;99658.28;5071770;28;20443;-78
2022/06/15 02:58:05;;;;;;;8.00;4.35;;;;;;;17.65;62.09;99669.88;5070521;28;20406;-77
2022/06/15 03:00:31;;;;;;;7.40;3.67;;;;;;;17.49;62.38;99670.81;5071939;28;20020;-78
2022/06/15 03:02:57;;;;;;;5.00;4.20;;;;;;;17.35;63.02;99667.75;5070349;28;20025;-78
2022/06/15 03:05:22;;;;;;;23.95;5.15;;;;;;;17.31;63.59;99672.53;5082669;28;20028;-77
2022/06/15 03:07:48;;;;;;;9.07;4.70;;;;;;;17.30;63.97;99674.53;5078962;28;20038;-77
2022/06/15 03:10:13;;;;;;;11.80;4.90;;;;;;;17.25;64.25;99686.97;5070731;28;20028;-75
2022/06/15 03:12:39;;;;;;;10.43;4.10;;;;;;;17.23;64.57;99680.06;5071928;28;20059;-78
2022/06/15 03:15:05;;;;;;;10.63;4.57;;;;;;;17.26;64.45;99673.66;5070088;28;20027;-76
2022/06/15 03:17:31;;;;;;;14.38;4.82;;;;;;;17.19;65.03;99680.00;5083004;28;20046;-78
2022/06/15 03:19:56;;;;;;;5.70;4.70;;;;;;;17.20;65.23;99675.16;5071184;28;20099;-80
2022/06/15 03:22:22;;;;;;;8.82;4.43;;;;;;;17.12;66.04;99675.03;5083313;28;20031;-80
2022/06/15 03:24:47;;;;;;;9.07;4.45;;;;;;;17.16;65.80;99685.56;5079212;28;20052;-75
2022/06/15 03:27:13;;;;;;;6.80;4.40;;;;;;;17.19;66.17;99681.97;5089126;28;20406;-76
2022/06/15 03:29:38;;;;;;;7.80;4.70;;;;;;;17.21;66.08;99673.97;5091435;28;20027;-74
2022/06/15 03:32:04;;;;;;;7.88;4.40;;;;;;;17.31;65.70;99678.19;5078160;28;20170;-74
2022/06/15 03:34:30;;;;;;;13.73;4.80;;;;;;;17.33;65.79;99679.44;5071421;28;20048;-74
2022/06/15 03:36:55;;;;;;;9.02;4.55;;;;;;;17.59;65.09;99674.22;5071131;28;20539;-75
2022/06/15 03:39:21;;;;;;;6.70;4.45;;;;;;;17.67;64.74;99675.97;5069732;28;20024;-75
2022/06/15 03:41:46;;;;;;;6.15;4.40;;;;;;;17.86;64.07;99685.56;5071470;28;20024;-75
2022/06/15 03:44:12;;;;;;;6.97;4.32;;;;;;;18.01;63.40;99684.59;5069265;28;20495;-75
2022/06/15 03:46:38;;;;;;;13.35;4.25;;;;;;;18.03;63.03;99689.88;5070518;28;20024;-75
2022/06/15 03:49:04;;;;;;;6.88;4.25;;;;;;;17.94;62.45;99684.47;5080811;28;20490;-75
2022/06/15 03:51:29;;;;;;;7.25;4.43;;;;;;;17.92;63.31;99684.88;5083666;28;20032;-75
2022/06/15 03:53:55;;;;;;;7.68;4.68;;;;;;;17.96;63.35;99694.22;5073410;28;20075;-75
2022/06/15 03:56:20;;;;;;;7.05;4.68;;;;;;;17.93;63.73;99699.81;5072507;28;20517;-75
2022/06/15 03:58:46;;;;;;;12.32;5.38;;;;;;;17.71;64.09;99696.63;5088144;28;20055;-75
2022/06/15 04:01:12;;;;;;;7.40;4.03;;;;;;;17.70;64.62;99692.19;5089304;28;20032;-75
2022/06/15 04:03:37;;;;;;;7.10;4.65;;;;;;;17.78;65.28;99688.28;5072642;28;20181;-75
2022/06/15 04:06:04;;;;;;;6.28;3.63;;;;;;;17.78;63.58;99682.63;5074395;28;20036;-75
2022/06/15 04:08:37;;;;;;;4.43;3.63;;;;;;;17.83;61.26;99693.59;5073142;28;20032;-75
2022/06/15 04:11:09;;;;;;;5.85;4.50;;;;;;;17.93;61.54;99699.81;5074120;28;20029;-75
2022/06/15 04:13:36;;;;;;;10.82;4.63;;;;;;;17.99;60.17;99706.81;5092095;28;20482;-75
2022/06/15 04:16:05;;;;;;;5.05;4.03;;;;;;;18.01;60.59;99701.56;5085946;28;20059;-75
2022/06/15 04:18:30;;;;;;;5.22;3.80;;;;;;;17.97;60.13;99689.38;5073571;28;20111;-75
2022/06/15 04:20:56;;;;;;;8.70;4.18;;;;;;;18.10;61.20;99707.81;5082389;28;20093;-75
2022/06/15 04:23:22;;;;;;;13.48;4.13;;;;;;;18.09;60.76;99709.00;5081276;28;20020;-74
2022/06/15 04:25:57;;;;;;;7.28;4.15;;;;;;;18.06;60.28;99704.09;5077668;28;20020;-75
2022/06/15 04:28:24;;;;;;;9.65;3.92;;;;;;;18.09;60.80;99699.69;5077721;28;20023;-74
2022/06/15 04:30:50;;;;;;;4.38;3.83;;;;;;;18.00;60.56;99701.94;5092730;28;20020;-74
2022/06/15 04:33:16;;;;;;;5.00;4.28;;;;;;;18.12;60.33;99710.25;5080720;28;20024;-75
2022/06/15 04:35:42;;;;;;;7.70;4.07;;;;;;;18.15;59.27;99700.19;5085272;28;20521;-75
2022/06/15 04:38:08;;;;;;;7.50;3.92;;;;;;;18.26;59.42;99700.34;5092784;28;20030;-74
2022/06/15 04:40:37;;;;;;;7.82;4.05;;;;;;;18.34;59.09;99705.75;5092635;28;20085;-74
2022/06/15 04:43:04;;;;;;;4.13;3.72;;;;;;;18.44;58.41;99711.94;5090612;28;20032;-74
2022/06/15 04:45:29;;;;;;;7.80;3.80;;;;;;;18.56;58.86;99711.69;5083300;28;20060;-74
2022/06/15 04:47:55;;;;;;;7.03;3.50;;;;;;;18.63;56.71;99708.97;5073293;28;20451;-74
2022/06/15 04:50:21;;;;;;;5.13;3.78;;;;;;;18.71;56.46;99715.53;5073520;28;20024;-74
2022/06/15 04:52:46;;;;;;;10.75;4.80;;;;;;;18.63;56.54;99702.47;5072178;28;20402;-74
2022/06/15 04:55:16;;;;;;;6.53;3.83;;;;;;;18.86;56.53;99704.38;5080510;28;20433;-74
2022/06/15 04:57:41;;;;;;;6.75;3.88;;;;;;;18.86;56.17;99710.88;5091260;28;20050;-75
2022/06/15 05:00:13;;;;;;;7.25;3.60;;;;;;;18.90;56.48;99694.72;5091578;28;20028;-75
2022/06/15 05:02:38;;;;;;;9.35;3.88;;;;;;;19.08;54.64;99694.97;5077401;28;20028;-75
2022/06/15 05:05:04;;;;;;;8.80;3.30;;;;;;;19.18;55.05;99709.66;5093245;28;20055;-74
2022/06/15 05:07:30;;;;;;;9.55;3.90;;;;;;;19.17;54.27;99703.16;5093236;28;20391;-74
2022/06/15 05:09:56;;;;;;;3.53;3.20;;;;;;;19.18;54.25;99710.44;5093014;28;20035;-74
2022/06/15 05:12:22;;;;;;;9.27;4.00;;;;;;;19.25;53.91;99697.56;5090527;28;20028;-74
2022/06/15 05:14:48;;;;;;;7.15;3.60;;;;;;;19.14;53.88;99698.25;5093385;28;20054;-74
2022/06/15 05:17:18;;;;;;;7.40;3.42;;;;;;;19.24;54.07;99704.44;5080542;28;20426;-74
2022/06/15 05:19:44;;;;;;;9.57;3.58;;;;;;;19.28;53.90;99691.09;5073407;28;20036;-74
2022/06/15 05:22:10;;;;;;;14.38;4.22;;;;;;;19.52;54.66;99700.25;5075510;28;20024;-75
2022/06/15 05:24:36;;;;;;;12.63;4.38;;;;;;;19.72;54.21;99701.66;5079782;28;20027;-74
2022/06/15 05:27:03;;;;;;;7.97;3.83;;;;;;;20.00;53.27;99702.31;5079704;28;20027;-75
2022/06/15 05:29:28;;;;;;;14.48;3.67;;;;;;;20.10;51.32;99709.28;5078688;28;20040;-75
2022/06/15 05:31:54;;;;;;;10.98;2.92;;;;;;;20.24;51.50;99714.25;5070956;28;20036;-75
2022/06/15 05:34:20;;;;;;;7.63;3.15;;;;;;;20.47;50.51;99717.63;5092634;28;20048;-75
2022/06/15 05:36:46;;;;;;;8.23;3.10;;;;;;;20.71;50.36;99714.50;5083563;28;20028;-74
2022/06/15 05:39:13;;;;;;;8.82;3.30;;;;;;;20.77;48.48;99725.09;5076796;28;20507;-74
2022/06/15 05:41:39;;;;;;;6.53;3.72;;;;;;;20.89;48.81;99720.28;5079180;28;20129;-75
2022/06/15 05:46:34;;;;;;;8.85;2.85;;;;;;;21.06;46.97;99715.88;5072553;28;20400;-74
2022/06/15 05:49:03;;;;;;;28.77;3.85;;;;;;;20.94;46.53;99691.50;5072337;28;20478;-75
2022/06/15 05:51:29;;;;;;;11.00;2.85;;;;;;;21.05;44.07;99708.59;5076666;28;20029;-73
2022/06/15 05:53:55;;;;;;;6.18;3.00;;;;;;;21.03;43.89;99719.53;5080204;28;20024;-73
2022/06/15 05:56:21;;;;;;;10.27;3.05;;;;;;;21.22;44.06;99717.56;5079755;28;20037;-73
2022/06/15 05:58:47;;;;;;;4.25;2.72;;;;;;;21.37;43.38;99724.09;5077190;28;20028;-72
2022/06/15 06:01:23;;;;;;;8.85;2.65;;;;;;;21.35;43.80;99724.50;5085475;28;20028;-73
2022/06/15 06:03:49;;;;;;;8.98;3.65;;;;;;;21.43;43.05;99729.00;5076568;28;20032;-74
2022/06/15 06:06:14;;;;;;;5.43;2.70;;;;;;;21.55;43.75;99724.13;5079348;28;20028;-73
2022/06/15 06:08:40;;;;;;;8.60;2.75;;;;;;;21.60;42.62;99726.59;5081733;28;20024;-73
2022/06/15 06:11:05;;;;;;;6.72;2.97;;;;;;;21.65;43.09;99731.03;5092053;28;20094;-72
2022/06/15 06:13:31;;;;;;;3.13;2.40;;;;;;;21.60;42.34;99735.13;5086370;28;20090;-73
2022/06/15 06:15:56;;;;;;;10.35;3.33;;;;;;;21.70;43.09;99730.69;5086308;28;20524;-73
2022/06/15 06:18:23;;;;;;;6.18;2.80;;;;;;;21.76;42.55;99731.91;5078850;28;20036;-73
2022/06/15 06:20:49;;;;;;;11.50;3.20;;;;;;;21.88;42.63;99739.25;5075199;28;20079;-73
2022/06/15 06:23:15;;;;;;;5.35;2.33;;;;;;;21.94;41.65;99734.75;5072389;28;20040;-72
2022/06/15 06:25:42;;;;;;;11.25;3.28;;;;;;;22.01;42.20;99751.84;5086344;28;20038;-73
2022/06/15 06:28:24;;;;;;;3.00;2.40;;;;;;;21.92;41.49;99740.03;5082778;28;20036;-73
2022/06/15 06:30:50;;;;;;;6.40;2.28;;;;;;;22.01;42.62;99746.16;5084822;28;20028;-73
2022/06/15 06:33:17;;;;;;;4.95;2.50;;;;;;;22.07;42.34;99749.41;5072252;28;20039;-71
2022/06/15 06:35:44;;;;;;;13.18;2.90;;;;;;;22.29;41.35;99755.91;5083601;28;20126;-73
2022/06/15 06:38:11;;;;;;;5.25;2.92;;;;;;;22.14;41.40;99748.59;5086789;28;20032;-72
2022/06/15 06:40:36;;;;;;;3.28;2.40;;;;;;;22.36;40.51;99743.66;5089604;28;20049;-72
2022/06/15 06:43:02;;;;;;;9.23;2.80;;;;;;;22.43;41.75;99745.69;5089114;28;20455;-72
2022/06/15 06:45:28;;;;;;;8.65;2.80;;;;;;;22.52;41.13;99737.56;5091804;28;20088;-73
2022/06/15 06:47:53;;;;;;;12.40;3.10;;;;;;;22.64;38.47;99735.50;5081418;28;20028;-73
2022/06/15 06:50:19;;;;;;;10.52;3.10;;;;;;;22.70;38.35;99745.28;5082862;28;20058;-73
2022/06/15 06:52:45;;;;;;;7.30;2.35;;;;;;;22.65;38.47;99735.09;5085489;28;20131;-73
2022/06/15 06:55:11;;;;;;;6.05;3.13;;;;;;;22.80;39.40;99744.41;5075431;28;20028;-71
2022/06/15 06:57:36;;;;;;;10.40;2.42;;;;;;;22.66;39.02;99736.72;5087644;28;20074;-72
2022/06/15 07:00:02;;;;;;;7.22;3.20;;;;;;;22.65;39.03;99737.94;5091913;28;20020;-72
2022/06/15 07:02:28;;;;;;;4.38;3.22;;;;;;;22.89;38.51;99734.59;5084015;28;20455;-73
2022/06/15 07:04:53;;;;;;;3.38;2.42;;;;;;;22.97;38.00;99730.50;5084191;28;20047;-72
2022/06/15 07:07:19;;;;;;;6.22;2.60;;;;;;;23.02;37.39;99732.13;5088115;28;20036;-72
2022/06/15 07:09:44;;;;;;;8.95;3.22;;;;;;;23.18;38.20;99740.19;5077984;28;20027;-72
2022/06/15 07:12:10;;;;;;;6.05;2.50;;;;;;;23.16;38.29;99731.22;5085859;28;20020;-73
2022/06/15 07:14:35;;;;;;;3.83;2.22;;;;;;;22.94;37.15;99734.19;5073742;28;20043;-73
2022/06/15 07:17:01;;;;;;;6.95;2.88;;;;;;;23.15;37.85;99736.13;5075639;28;20027;-72
2022/06/15 07:19:26;;;;;;;4.57;2.30;;;;;;;23.21;36.93;99733.66;5075364;28;20031;-72
2022/06/15 07:21:52;;;;;;;7.68;2.40;;;;;;;23.09;37.76;99732.91;5083231;28;20405;-74
2022/06/15 07:24:18;;;;;;;6.35;3.08;;;;;;;23.58;37.71;99732.22;5074004;28;20360;-73
2022/06/15 07:26:47;;;;;;;14.48;3.58;;;;;;;23.72;37.87;99733.34;5083904;28;20052;-73
2022/06/15 07:29:18;;;;;;;4.22;2.10;;;;;;;23.35;37.74;99736.44;5075989;28;20032;-73
2022/06/15 07:31:48;;;;;;;6.45;2.20;;;;;;;23.16;37.16;99729.19;5078184;28;20032;-74
2022/06/15 07:34:14;;;;;;;7.35;2.70;;;;;;;23.36;36.17;99734.41;5077266;28;20029;-73
2022/06/15 07:36:46;;;;;;;4.82;2.10;;;;;;;23.37;36.08;99738.91;5071050;28;20033;-72
2022/06/15 07:39:14;;;;;;;8.75;2.60;;;;;;;23.41;36.57;99740.50;5074334;28;20028;-73
2022/06/15 07:41:40;;;;;;;7.95;2.30;;;;;;;23.58;35.65;99735.09;5072856;28;20024;-73
2022/06/15 07:44:06;;;;;;;80.90;6.15;;;;;;;23.75;36.31;99733.34;5070783;28;20051;-73
2022/06/15 07:46:31;;;;;;;16.83;3.05;;;;;;;24.02;36.17;99729.84;5073622;28;20024;-72
2022/06/15 07:51:45;;;;;;;10.30;2.90;;;;;;;24.14;37.12;99737.13;5070488;28;20093;-75
2022/06/15 07:54:14;;;;;;;2.20;2.00;;;;;;;24.00;35.17;99738.03;5070026;28;20028;-75
2022/06/15 07:56:40;;;;;;;7.53;3.72;;;;;;;24.11;35.47;99737.94;5078506;28;20043;-74
2022/06/15 07:59:07;;;;;;;7.18;2.53;;;;;;;24.19;33.74;99730.94;5075128;28;20380;-83
2022/06/15 08:01:33;;;;;;;3.60;2.50;;;;;;;24.21;36.41;99737.03;5085806;28;20028;-75
2022/06/15 08:03:59;;;;;;;10.43;2.58;;;;;;;24.31;34.86;99726.75;5085925;28;20028;-75
2022/06/15 08:06:25;;;;;;;47.33;6.78;;;;;;;24.22;36.56;99732.94;5091390;28;20040;-75
2022/06/15 08:08:51;;;;;;;4.55;1.77;;;;;;;24.34;34.19;99723.06;5089741;28;20047;-77
2022/06/15 08:11:18;;;;;;;3.72;2.05;;;;;;;24.16;34.42;99730.97;5085656;28;20032;-74
2022/06/15 08:13:44;;;;;;;13.80;4.57;;;;;;;24.43;34.88;99736.84;5068859;28;20036;-74
2022/06/15 08:16:10;;;;;;;8.05;3.33;;;;;;;24.59;33.69;99721.16;5070417;28;20031;-75
2022/06/15 08:18:42;;;;;;;5.35;2.42;;;;;;;24.70;33.83;99727.56;5068624;28;20101;-76
2022/06/15 08:21:16;;;;;;;7.38;2.80;;;;;;;24.79;33.11;99732.78;5080115;28;20028;-75
2022/06/15 08:23:45;;;;;;;14.25;3.00;;;;;;;24.80;34.58;99726.66;5090352;28;20410;-75
2022/06/15 08:26:16;;;;;;;4.70;1.98;;;;;;;25.09;33.94;99732.00;5087456;28;20170;-76
2022/06/15 08:28:47;;;;;;;4.93;2.88;;;;;;;24.81;32.45;99728.28;5075236;28;20406;-74
2022/06/15 08:31:13;;;;;;;5.70;3.03;;;;;;;25.01;34.25;99729.66;5078770;28;20020;-77
2022/06/15 08:33:39;;;;;;;14.10;6.53;;;;;;;25.06;33.06;99726.34;5079063;28;20375;-75
2022/06/15 08:36:06;;;;;;;5.07;2.40;;;;;;;24.83;33.11;99730.72;5076386;28;20052;-74
2022/06/15 08:38:32;;;;;;;3.67;2.22;;;;;;;25.13;30.89;99729.09;5081336;28;20031;-74
2022/06/15 08:41:03;;;;;;;9.05;2.10;;;;;;;25.32;31.12;99723.94;5088372;28;20060;-75
2022/06/15 08:43:50;;;;;;;3.22;2.58;;;;;;;25.12;32.53;99723.81;5072302;28;20453;-75
2022/06/15 08:46:32;;;;;;;3.22;1.98;;;;;;;25.04;30.80;99706.72;5074621;28;20555;-74
2022/06/15 08:49:19;;;;;;;6.60;2.47;;;;;;;25.43;32.77;99726.63;5092264;28;20505;-75
2022/06/15 08:51:50;;;;;;;5.82;2.42;;;;;;;25.17;31.36;99721.28;5078414;28;20036;-74
2022/06/15 08:54:30;;;;;;;4.20;1.60;;;;;;;25.02;29.96;99726.38;5074372;28;20035;-75
2022/06/15 08:57:02;;;;;;;5.43;1.85;;;;;;;25.23;30.16;99725.28;5074466;28;20028;-74
2022/06/15 08:59:36;;;;;;;9.00;1.90;;;;;;;24.87;30.15;99714.31;5083045;28;20038;-74
2022/06/15 09:02:17;;;;;;;3.50;2.33;;;;;;;25.50;32.15;99712.25;5073323;28;20029;-74
2022/06/15 09:04:48;;;;;;;6.03;2.72;;;;;;;25.76;29.67;99722.09;5074844;28;20036;-76
2022/06/15 09:07:44;;;;;;;6.22;2.28;;;;;;;25.74;29.58;99724.56;5081299;28;20040;-73
2022/06/15 09:10:19;;;;;;;2.70;1.80;;;;;;;25.61;29.80;99720.69;5071711;28;20025;-75
2022/06/15 09:13:02;;;;;;;2.17;1.80;;;;;;;25.77;29.50;99717.16;5071963;28;20033;-77
2022/06/15 09:15:52;;;;;;;15.77;2.38;;;;;;;25.91;29.71;99707.53;5074111;28;20355;-76
2022/06/15 09:18:44;;;;;;;5.57;1.88;;;;;;;25.50;29.40;99715.13;5072389;28;20039;-76
2022/06/15 09:21:37;;;;;;;5.47;2.30;;;;;;;25.38;28.58;99702.16;5070600;28;20040;-76
2022/06/15 09:24:16;;;;;;;9.30;2.08;;;;;;;26.12;31.03;99703.47;5078447;28;20036;-75
2022/06/15 09:26:49;;;;;;;4.07;1.90;;;;;;;26.47;29.47;99700.38;5082454;28;20032;-76
2022/06/15 09:29:41;;;;;;;6.82;1.77;;;;;;;26.66;29.65;99700.84;5079126;28;20111;-77
2022/06/15 09:32:17;;;;;;;3.85;2.75;;;;;;;26.61;28.57;99699.31;5080150;28;20054;-77
2022/06/15 09:34:55;;;;;;;4.63;2.17;;;;;;;26.44;29.34;99702.09;5092251;28;20044;-76
2022/06/15 09:37:23;;;;;;;14.30;2.78;;;;;;;26.76;29.24;99694.09;5082205;28;20032;-74
2022/06/15 09:39:49;;;;;;;3.90;2.03;;;;;;;26.70;27.19;99702.41;5081139;28;20027;-79
2022/06/15 09:42:22;;;;;;;5.68;1.90;;;;;;;26.97;27.77;99687.09;5086144;28;20042;-80
2022/06/15 09:44:52;;;;;;;4.28;2.15;;;;;;;27.11;27.47;99700.34;5082231;28;20478;-77
2022/06/15 09:47:36;;;;;;;5.03;2.08;;;;;;;27.09;26.72;99699.16;5086148;28;20107;-78
2022/06/15 09:50:16;;;;;;;18.55;2.60;;;;;;;27.09;27.68;99693.41;5078504;28;20454;-83
2022/06/15 09:53:24;;;;;;;4.20;1.65;;;;;;;27.66;28.09;99688.41;5082238;28;20031;-77
2022/06/15 09:55:56;;;;;;;7.07;2.30;;;;;;;27.53;27.96;99681.75;5061474;28;20486;-76
2022/06/15 09:58:27;;;;;;;4.18;1.92;;;;;;;27.31;27.91;99683.06;5089461;28;20028;-80
2022/06/15 10:00:53;;;;;;;3.45;2.05;;;;;;;27.37;28.00;99685.41;5088221;28;20119;-75
2022/06/15 10:03:44;;;;;;;4.60;2.13;;;;;;;27.49;27.00;99681.81;5076965;28;20036;-75
2022/06/15 10:06:51;;;;;;;5.38;1.88;;;;;;;27.70;27.58;99673.97;5080445;28;20495;-83
2022/06/15 10:09:23;;;;;;;6.82;2.42;;;;;;;26.83;29.52;99673.84;5076870;28;20045;-79
2022/06/15 10:11:55;;;;;;;4.50;1.92;;;;;;;26.71;28.93;99686.81;5080369;28;20024;-78
2022/06/15 10:14:30;;;;;;;7.70;1.83;;;;;;;27.20;28.27;99679.63;5084762;28;20036;-81
2022/06/15 10:16:59;;;;;;;7.72;1.90;;;;;;;27.40;28.16;99684.53;5084544;28;20027;-83
2022/06/15 10:19:27;;;;;;;2.78;1.70;;;;;;;27.78;28.53;99677.47;5076801;28;20047;-78
2022/06/15 10:21:59;;;;;;;5.55;1.80;;;;;;;27.85;25.41;99660.84;5101633;28;20507;-78
2022/06/15 10:24:35;;;;;;;5.07;1.40;;;;;;;28.04;25.47;99672.69;5081229;28;20065;-80
2022/06/15 10:27:16;;;;;;;4.60;2.03;;;;;;;28.30;26.95;99676.53;5091337;28;20039;-77
2022/06/15 10:29:42;;;;;;;8.20;2.15;;;;;;;28.01;25.99;99670.72;5083471;28;20023;-79
2022/06/15 10:32:08;;;;;;;3.10;2.22;;;;;;;27.84;26.55;99667.06;5078631;28;20685;-79
2022/06/15 10:34:49;;;;;;;5.10;2.42;;;;;;;27.51;27.97;99669.91;5077967;28;20155;-74
2022/06/15 10:37:35;;;;;;;5.57;2.10;;;;;;;27.58;26.48;99666.88;5077415;28;20043;-76
2022/06/15 10:40:18;;;;;;;8.10;3.90;;;;;;;28.05;25.99;99659.13;5072433;28;20110;-75
2022/06/15 10:42:51;;;;;;;11.52;7.88;;;;;;;28.22;26.38;99666.50;5079880;28;20126;-75
2022/06/15 10:45:37;;;;;;;4.65;2.70;;;;;;;28.82;27.00;99665.22;5076942;28;20082;-75
2022/06/15 10:48:16;;;;;;;5.57;1.88;;;;;;;28.83;26.36;99657.38;5082916;28;20081;-75
2022/06/15 10:51:31;;;;;;;16.95;2.78;;;;;;;29.16;26.31;99653.53;5069215;28;20198;-76
2022/06/15 11:02:06;;;;;;;3.45;1.60;;;;;;;28.95;28.23;99653.72;5074383;28;20040;-73
2022/06/15 11:03:19;;;;;;;5.97;2.95;;;;;;;29.13;30.73;99653.16;5074163;28;20560;-74
2022/06/15 11:05:48;;;;;;;3.00;2.10;;;;;;;29.10;30.08;99638.91;5076092;28;20032;-75
2022/06/15 11:08:19;;;;;;;1.92;1.73;;;;;;;29.31;30.02;99627.94;5073571;28;20027;-75
2022/06/15 11:10:52;;;;;;;3.88;2.58;;;;;;;29.43;29.86;99644.44;5070455;28;20024;-74
2022/06/15 11:13:56;;;;;;;3.78;2.08;;;;;;;28.51;29.06;99650.50;5067607;28;20032;-75
2022/06/15 11:19:11;;;;;;;;;;;;;;;28.61;30.06;99646.50;5075866;28;20419;-77
2022/06/15 11:21:59;;;;;;;4.28;1.98;;;;;;;28.95;31.00;99627.03;5088312;28;19912;-77
2022/06/15 11:24:37;;;;;;;2.78;2.35;;;;;;;28.78;29.67;99641.50;5087747;28;20055;-77
2022/06/15 11:27:11;;;;;;;4.38;2.97;;;;;;;28.38;29.63;99639.75;5070279;28;20494;-78
2022/06/15 11:29:45;;;;;;;2.70;1.70;;;;;;;28.62;28.38;99633.75;5078029;28;20460;-77
2022/06/15 11:32:17;;;;;;;2.40;2.00;;;;;;;28.83;29.64;99635.19;5076928;28;20028;-77
2022/06/15 11:35:08;;;;;;;4.00;1.95;;;;;;;29.29;29.04;99620.59;5087720;28;20079;-77
2022/06/15 11:37:47;;;;;;;11.50;1.80;;;;;;;29.79;29.18;99625.94;5081436;28;20032;-77
2022/06/15 11:40:43;;;;;;;1.80;1.70;;;;;;;29.78;27.68;99635.88;5080910;28;20039;-77
2022/06/15 11:43:26;;;;;;;2.08;1.88;;;;;;;29.73;28.37;99633.59;5077857;28;20090;-78
2022/06/15 11:46:25;;;;;;;3.83;2.03;;;;;;;29.47;27.10;99636.50;5076917;28;20027;-78
2022/06/15 11:49:22;;;;;;;3.65;1.90;;;;;;;30.00;27.89;99638.00;5074259;28;20027;-78
2022/06/15 11:52:22;;;;;;;6.75;2.17;;;;;;;30.10;26.51;99621.63;5080141;28;20032;-77
2022/06/15 11:55:21;;;;;;;3.90;2.05;;;;;;;30.09;26.12;99635.25;5083646;28;20025;-78
2022/06/15 11:57:55;;;;;;;2.55;1.90;;;;;;;30.08;26.59;99630.75;5072652;28;20028;-77
2022/06/15 12:00:36;;;;;;;4.53;2.05;;;;;;;29.49;27.83;99636.84;5090166;28;20035;-78
2022/06/15 12:03:26;;;;;;;3.58;2.00;;;;;;;30.12;29.11;99633.50;5073550;28;20039;-78
2022/06/15 12:06:27;;;;;;;5.03;2.05;;;;;;;30.30;28.00;99627.09;5082628;28;20061;-78